createdAt,value
2018-07-05T00:00:50.479Z,80.0
2018-07-05T00:02:50.951Z,80.0
2018-07-05T00:04:50.135Z,80.0
2018-07-05T00:06:49.982Z,80.0
2018-07-05T00:08:50.641Z,80.4
2018-07-05T00:10:50.982Z,80.7
2018-07-05T00:12:50.562Z,80.9
2018-07-05T00:14:50.862Z,80.6
2018-07-05T00:16:50.802Z,80.8
2018-07-05T00:18:50.327Z,81.1
2018-07-05T00:20:50.656Z,80.6
2018-07-05T00:22:50.114Z,80.8
2018-07-05T00:24:50.380Z,80.5
2018-07-05T00:26:50.708Z,80.5
2018-07-05T00:28:50.771Z,80.6
2018-07-05T00:30:50.579Z,80.5
2018-07-05T00:32:50.759Z,80.7
2018-07-05T00:34:50.413Z,81.0
2018-07-05T00:36:50.433Z,81.1
2018-07-05T00:38:50.378Z,81.2
2018-07-05T00:40:50.199Z,81.4
2018-07-05T00:42:50.318Z,81.2
2018-07-05T00:44:50.128Z,81.2
2018-07-05T00:46:50.252Z,81.2
2018-07-05T00:48:50.052Z,80.9
2018-07-05T00:50:50.783Z,81.0
2018-07-05T00:52:50.757Z,81.1
2018-07-05T00:54:50.603Z,81.1
2018-07-05T00:56:50.097Z,81.3
2018-07-05T00:58:50.761Z,81.2
2018-07-05T01:00:50.405Z,81.4
2018-07-05T01:02:50.398Z,81.4
2018-07-05T01:04:50.681Z,82.1
2018-07-05T01:06:50.120Z,82.2
2018-07-05T01:08:50.337Z,82.1
2018-07-05T01:10:50.053Z,82.0
2018-07-05T01:12:50.899Z,82.3
2018-07-05T01:14:50.221Z,82.3
2018-07-05T01:16:50.890Z,82.6
2018-07-05T01:18:50.915Z,82.1
2018-07-05T01:20:50.697Z,82.2
2018-07-05T01:22:50.504Z,83.3
2018-07-05T01:24:50.782Z,83.4
2018-07-05T01:26:50.800Z,83.3
2018-07-05T01:28:50.453Z,83.0
2018-07-05T01:30:50.235Z,83.2
2018-07-05T01:32:50.241Z,83.7
2018-07-05T01:34:50.507Z,83.8
2018-07-05T01:36:50.562Z,83.7
2018-07-05T01:38:50.927Z,84.0
2018-07-05T01:40:51.069Z,84.0
2018-07-05T01:42:50.850Z,83.9
2018-07-05T01:44:50.138Z,84.3
2018-07-05T01:46:50.363Z,84.1
2018-07-05T01:48:50.587Z,84.3
2018-07-05T01:50:50.885Z,84.2
2018-07-05T01:52:50.417Z,84.4
2018-07-05T01:54:50.665Z,84.4
2018-07-05T01:56:50.111Z,84.1
2018-07-05T01:58:50.366Z,83.7
2018-07-05T02:00:50.479Z,83.9
2018-07-05T02:02:50.953Z,84.1
2018-07-05T02:04:50.646Z,84.1
2018-07-05T02:06:50.803Z,84.4
2018-07-05T02:08:50.715Z,84.6
2018-07-05T02:10:50.060Z,84.6
2018-07-05T02:12:50.582Z,84.6
2018-07-05T02:14:50.399Z,84.7
2018-07-05T02:16:50.784Z,84.9
2018-07-05T02:18:50.239Z,85.1
2018-07-05T02:20:50.822Z,85.6
2018-07-05T02:22:50.232Z,85.5
2018-07-05T02:24:50.937Z,85.3
2018-07-05T02:26:50.453Z,85.3
2018-07-05T02:28:51.002Z,85.6
2018-07-05T02:30:50.361Z,85.7
2018-07-05T02:32:50.909Z,85.7
2018-07-05T02:34:50.798Z,85.9
2018-07-05T02:36:50.166Z,86.0
2018-07-05T02:38:50.354Z,85.9
2018-07-05T02:40:50.915Z,86.2
2018-07-05T02:42:50.498Z,86.0
2018-07-05T02:44:50.332Z,86.0
2018-07-05T02:46:50.592Z,86.3
2018-07-05T02:48:50.904Z,86.3
2018-07-05T02:50:50.786Z,86.4
2018-07-05T02:52:50.047Z,86.4
2018-07-05T02:54:50.841Z,86.1
2018-07-05T02:56:50.276Z,86.1
2018-07-05T02:58:50.840Z,86.2
2018-07-05T03:00:50.295Z,86.4
2018-07-05T03:02:50.599Z,86.5
2018-07-05T03:04:50.614Z,86.3
2018-07-05T03:06:50.733Z,86.3
2018-07-05T03:08:50.522Z,86.6
2018-07-05T03:10:50.941Z,86.9
2018-07-05T03:12:50.196Z,86.8
2018-07-05T03:14:50.197Z,86.8
2018-07-05T03:16:50.492Z,86.8
2018-07-05T03:18:50.130Z,87.1
2018-07-05T03:20:50.425Z,87.0
2018-07-05T03:22:50.826Z,87.5
2018-07-05T03:24:50.763Z,87.5
2018-07-05T03:26:50.366Z,87.5
2018-07-05T03:28:50.748Z,87.4
2018-07-05T03:30:50.233Z,87.4
2018-07-05T03:32:50.286Z,87.4
2018-07-05T03:34:50.587Z,87.8
2018-07-05T03:36:49.993Z,87.8
2018-07-05T03:38:50.208Z,87.8
2018-07-05T03:40:50.783Z,87.6
2018-07-05T03:42:50.839Z,87.5
2018-07-05T03:44:50.194Z,87.8
2018-07-05T03:46:50.905Z,87.4
2018-07-05T03:48:50.753Z,87.4
2018-07-05T03:50:50.327Z,87.1
2018-07-05T03:52:50.484Z,86.6
2018-07-05T03:54:50.720Z,86.4
2018-07-05T03:56:50.714Z,86.2
2018-07-05T03:58:50.309Z,86.3
2018-07-05T04:00:50.941Z,86.0
2018-07-05T04:02:50.068Z,86.1
2018-07-05T04:04:50.438Z,85.9
2018-07-05T04:06:50.571Z,85.7
2018-07-05T04:08:50.869Z,85.7
2018-07-05T04:10:50.695Z,85.6
2018-07-05T04:12:50.613Z,85.3
2018-07-05T04:14:50.071Z,85.3
2018-07-05T04:16:50.450Z,85.4
2018-07-05T04:18:50.563Z,85.3
2018-07-05T04:20:50.422Z,85.1
2018-07-05T04:22:50.382Z,84.5
2018-07-05T04:24:50.610Z,84.2
2018-07-05T04:26:50.239Z,84.4
2018-07-05T04:28:50.057Z,84.1
2018-07-05T04:30:50.091Z,84.1
2018-07-05T04:32:50.322Z,82.9
2018-07-05T04:34:50.398Z,82.9
2018-07-05T04:36:50.108Z,82.7
2018-07-05T04:38:50.669Z,82.8
2018-07-05T04:40:50.657Z,82.2
2018-07-05T04:42:51.095Z,82.3
2018-07-05T04:44:50.116Z,82.4
2018-07-05T04:46:50.705Z,81.9
2018-07-05T04:48:50.374Z,81.4
2018-07-05T04:50:50.325Z,80.9
2018-07-05T04:52:50.587Z,80.2
2018-07-05T04:54:50.567Z,79.9
2018-07-05T04:56:50.497Z,80.0
2018-07-05T04:58:50.028Z,79.3
2018-07-05T05:00:50.215Z,78.9
2018-07-05T05:02:50.128Z,78.8
2018-07-05T05:04:50.315Z,78.3
2018-07-05T05:06:50.480Z,78.1
2018-07-05T05:08:51.213Z,78.1
2018-07-05T05:10:50.830Z,77.8
2018-07-05T05:12:50.651Z,77.5
2018-07-05T05:14:50.210Z,76.9
2018-07-05T05:16:50.420Z,76.3
2018-07-05T05:18:50.465Z,76.9
2018-07-05T05:20:50.400Z,76.0
2018-07-05T05:22:50.275Z,76.0
2018-07-05T05:24:50.645Z,76.0
2018-07-05T05:26:50.216Z,75.2
2018-07-05T05:28:50.723Z,74.8
2018-07-05T05:30:50.127Z,74.6
2018-07-05T05:32:50.960Z,74.0
2018-07-05T05:34:50.412Z,73.9
2018-07-05T05:36:50.528Z,73.8
2018-07-05T05:38:50.416Z,73.0
2018-07-05T05:40:50.814Z,72.7
2018-07-05T05:42:50.603Z,72.7
2018-07-05T05:44:50.152Z,72.4
2018-07-05T05:46:50.546Z,72.1
2018-07-05T05:48:50.106Z,72.3
2018-07-05T05:50:50.788Z,71.9
2018-07-05T05:52:50.222Z,71.0
2018-07-05T05:54:50.728Z,70.5
2018-07-05T05:56:50.236Z,70.6
2018-07-05T05:58:50.619Z,70.0
2018-07-05T06:00:50.643Z,69.5
2018-07-05T06:02:50.725Z,69.2
2018-07-05T06:04:50.686Z,68.7
2018-07-05T06:06:49.987Z,68.0
2018-07-05T06:08:50.210Z,67.7
2018-07-05T06:10:50.342Z,67.4
2018-07-05T06:12:50.237Z,67.0
2018-07-05T06:14:50.400Z,66.6
2018-07-05T06:16:50.772Z,66.6
2018-07-05T06:18:50.012Z,65.9
2018-07-05T06:20:50.049Z,65.5
2018-07-05T06:22:50.812Z,65.4
2018-07-05T06:24:50.886Z,64.6
2018-07-05T06:26:50.364Z,65.2
2018-07-05T06:28:50.567Z,64.9
2018-07-05T06:30:50.738Z,64.0
2018-07-05T06:32:50.385Z,63.2
2018-07-05T06:34:50.913Z,62.2
2018-07-05T06:36:50.171Z,62.4
2018-07-05T06:38:50.222Z,61.6
2018-07-05T06:40:50.140Z,61
2018-07-05T06:42:50.053Z,61
2018-07-05T06:44:50.588Z,61
2018-07-05T06:46:50.917Z,61
2018-07-05T06:48:50.913Z,60.6
2018-07-05T06:50:50.796Z,60.2
2018-07-05T06:52:50.779Z,61
2018-07-05T06:54:50.255Z,61
2018-07-05T06:56:50.601Z,61
2018-07-05T06:58:50.613Z,60
2018-07-05T07:00:50.340Z,60
2018-07-05T07:02:50.381Z,60
2018-07-05T07:04:50.153Z,60
2018-07-05T07:06:50.550Z,61
2018-07-05T07:08:50.341Z,60
2018-07-05T07:10:50.835Z,60
2018-07-05T07:12:50.868Z,60
2018-07-05T07:14:50.782Z,60
2018-07-05T07:16:50.172Z,60
2018-07-05T07:18:50.945Z,60
2018-07-05T07:20:50.708Z,60
2018-07-05T07:22:50.519Z,59
2018-07-05T07:24:50.274Z,59
2018-07-05T07:26:49.956Z,59
2018-07-05T07:28:50.554Z,59
2018-07-05T07:30:50.440Z,59
2018-07-05T07:32:50.230Z,58
2018-07-05T07:34:50.228Z,58
2018-07-05T07:36:50.862Z,58
2018-07-05T07:38:50.181Z,58
2018-07-05T07:40:50.029Z,58
2018-07-05T07:42:50.818Z,57
2018-07-05T07:44:50.934Z,58
2018-07-05T07:46:50.139Z,58
2018-07-05T07:48:50.285Z,58
2018-07-05T07:50:50.325Z,57
2018-07-05T07:52:50.455Z,57
2018-07-05T07:54:50.614Z,56
2018-07-05T07:56:50.783Z,56
2018-07-05T07:58:50.022Z,56
2018-07-05T08:00:50.242Z,54
2018-07-05T08:02:50.303Z,54
2018-07-05T08:04:50.654Z,54
2018-07-05T08:06:49.980Z,54
2018-07-05T08:08:50.065Z,55
2018-07-05T08:10:50.329Z,55
2018-07-05T08:12:50.454Z,55
2018-07-05T08:14:50.633Z,53
2018-07-05T08:16:50.963Z,53
2018-07-05T08:18:50.100Z,54
2018-07-05T08:20:50.194Z,53
2018-07-05T08:22:50.289Z,53
2018-07-05T08:24:50.299Z,53
2018-07-05T08:26:50.443Z,53
2018-07-05T08:28:50.487Z,53
2018-07-05T08:30:50.578Z,52
2018-07-05T08:32:50.681Z,52
2018-07-05T08:34:50.064Z,47.8
2018-07-05T08:36:50.244Z,48.3
2018-07-05T08:38:50.285Z,49.0
2018-07-05T08:40:50.397Z,49.2
2018-07-05T08:42:50.556Z,49.1
2018-07-05T08:44:51.185Z,48.2
2018-07-05T08:46:50.606Z,47.3
2018-07-05T08:48:50.641Z,48.3
2018-07-05T08:50:50.748Z,48.2
2018-07-05T08:52:50.833Z,47.4
2018-07-05T08:54:50.866Z,46.9
2018-07-05T08:56:50.379Z,47.7
2018-07-05T08:58:50.404Z,46.6
2018-07-05T09:00:50.539Z,46.0
2018-07-05T09:02:50.611Z,45.3
2018-07-05T09:04:50.305Z,45.3
2018-07-05T09:06:50.519Z,43.6
2018-07-05T09:08:50.558Z,43.0
2018-07-05T09:10:50.643Z,49
2018-07-05T09:12:50.773Z,46
2018-07-05T09:14:50.816Z,46
2018-07-05T09:16:49.986Z,42.5
2018-07-05T09:18:50.114Z,41.1
2018-07-05T09:20:50.354Z,46
2018-07-05T09:22:50.484Z,46
2018-07-05T09:24:50.671Z,45
2018-07-05T09:26:51.721Z,40.8
2018-07-05T09:28:50.061Z,39.9
2018-07-05T09:30:50.099Z,39.5
2018-07-05T09:32:50.237Z,44
2018-07-05T09:34:50.494Z,44
2018-07-05T09:36:50.763Z,45
2018-07-05T09:38:50.813Z,44
2018-07-05T09:40:50.958Z,43
2018-07-05T09:42:50.029Z,43
2018-07-05T09:44:50.167Z,38.9
2018-07-05T09:46:50.368Z,37.4
2018-07-05T09:48:50.697Z,37.1
2018-07-05T09:50:50.815Z,38.2
2018-07-05T09:52:51.892Z,37.2
2018-07-05T09:54:50.174Z,36.9
2018-07-05T09:56:50.408Z,36.7
2018-07-05T09:58:50.502Z,42
2018-07-05T10:00:50.612Z,42
2018-07-05T10:02:50.397Z,42
2018-07-05T10:04:50.703Z,41
2018-07-05T10:06:50.962Z,38.8
2018-07-05T10:08:50.254Z,38.1
2018-07-05T10:10:50.377Z,42
2018-07-05T10:12:50.455Z,42
2018-07-05T10:14:50.496Z,42
2018-07-05T10:16:50.612Z,42
2018-07-05T10:18:50.716Z,42
2018-07-05T10:20:50.041Z,42
2018-07-05T10:22:50.188Z,41
2018-07-05T10:24:50.478Z,41
2018-07-05T10:26:50.755Z,41
2018-07-05T10:28:50.902Z,41
2018-07-05T10:30:50.360Z,42
2018-07-05T10:32:50.824Z,41
2018-07-05T10:34:50.104Z,40
2018-07-05T10:36:50.354Z,40
2018-07-05T10:38:50.481Z,40
2018-07-05T10:40:50.620Z,40
2018-07-05T10:42:50.818Z,39
2018-07-05T10:44:50.930Z,39
2018-07-05T10:46:50.325Z,39
2018-07-05T10:48:50.422Z,39
2018-07-05T10:50:50.289Z,38
2018-07-05T10:52:50.284Z,37
2018-07-05T10:54:50.892Z,38
2018-07-05T10:56:50.052Z,37
2018-07-05T10:58:50.040Z,37
2018-07-05T11:00:50.799Z,36
2018-07-05T11:02:50.086Z,36
2018-07-05T11:04:50.771Z,36
2018-07-05T11:06:50.828Z,37
2018-07-05T11:08:50.554Z,37
2018-07-05T11:10:50.585Z,37
2018-07-05T11:12:50.641Z,35
2018-07-05T11:14:51.291Z,35
2018-07-05T11:16:50.366Z,35
2018-07-05T11:18:50.036Z,36
2018-07-05T11:20:50.587Z,37
2018-07-05T11:22:50.399Z,35
2018-07-05T11:24:50.006Z,35
2018-07-05T11:26:50.026Z,35
2018-07-05T11:28:50.662Z,36
2018-07-05T11:30:50.121Z,35
2018-07-05T11:32:50.014Z,35
2018-07-05T11:34:50.856Z,34
2018-07-05T11:36:50.966Z,34
2018-07-05T11:38:50.199Z,34
2018-07-05T11:40:50.849Z,34
2018-07-05T11:42:52.037Z,34
2018-07-05T11:44:50.742Z,34
2018-07-05T11:46:51.407Z,34
2018-07-05T11:48:50.790Z,33
2018-07-05T11:50:50.729Z,33
2018-07-05T11:52:50.124Z,33
2018-07-05T11:54:50.912Z,33
2018-07-05T11:56:50.160Z,34
2018-07-05T11:58:50.612Z,33
2018-07-05T12:00:50.414Z,33
2018-07-05T12:02:50.915Z,34
2018-07-05T12:04:49.952Z,34
2018-07-05T12:06:50.202Z,33
2018-07-05T12:08:50.143Z,33
2018-07-05T12:10:50.216Z,34
2018-07-05T12:12:50.410Z,34
2018-07-05T12:14:50.559Z,33
2018-07-05T12:16:50.743Z,30.4
2018-07-05T12:18:50.727Z,30.8
2018-07-05T12:20:50.791Z,29.5
2018-07-05T12:22:49.997Z,33
2018-07-05T12:24:50.142Z,30.2
2018-07-05T12:26:50.570Z,30.6
2018-07-05T12:28:50.277Z,33
2018-07-05T12:30:50.388Z,34
2018-07-05T12:32:50.584Z,30.3
2018-07-05T12:34:49.986Z,30.3
2018-07-05T12:36:50.294Z,31.4
2018-07-05T12:38:50.823Z,32.2
2018-07-05T12:40:50.927Z,31.1
2018-07-05T12:42:50.368Z,29.9
2018-07-05T12:44:50.558Z,31.0
2018-07-05T12:46:50.990Z,30.7
2018-07-05T12:48:50.414Z,31.1
2018-07-05T12:50:50.487Z,31.1
2018-07-05T12:52:49.992Z,33.7
2018-07-05T12:54:50.188Z,33.6
2018-07-05T12:56:50.465Z,34.3
2018-07-05T12:58:49.980Z,34.4
2018-07-05T13:00:50.090Z,34.6
2018-07-05T13:02:50.602Z,35.8
2018-07-05T13:04:49.964Z,36.3
2018-07-05T13:06:50.193Z,37.0
2018-07-05T13:08:50.587Z,36.8
2018-07-05T13:10:50.680Z,35.3
2018-07-05T13:12:50.748Z,35.3
2018-07-05T13:14:50.463Z,35.3
2018-07-05T13:16:50.856Z,38
2018-07-05T13:18:50.202Z,38
2018-07-05T13:20:50.423Z,38
2018-07-05T13:22:50.667Z,38
2018-07-05T13:24:50.023Z,37
2018-07-05T13:26:50.440Z,37
2018-07-05T13:28:50.892Z,37
2018-07-05T13:30:50.947Z,37
2018-07-05T13:32:50.470Z,36
2018-07-05T13:34:50.864Z,33.4
2018-07-05T13:36:50.053Z,32.6
2018-07-05T13:38:50.555Z,32.2
2018-07-05T13:40:50.590Z,35
2018-07-05T13:42:50.244Z,32.9
2018-07-05T13:44:50.488Z,33.2
2018-07-05T13:46:50.387Z,32.9
2018-07-05T13:48:50.413Z,32.8
2018-07-05T13:50:50.072Z,33.2
2018-07-05T13:52:50.858Z,34.1
2018-07-05T13:54:50.089Z,34.0
2018-07-05T13:56:50.901Z,34.8
2018-07-05T13:58:50.113Z,35.2
2018-07-05T14:00:50.054Z,36.0
2018-07-05T14:02:50.500Z,45.1
2018-07-05T14:04:50.232Z,47.1
2018-07-05T14:06:50.480Z,49.4
2018-07-05T14:08:51.071Z,51.3
2018-07-05T14:10:50.879Z,52.3
2018-07-05T14:12:50.077Z,54.3
2018-07-05T14:14:50.912Z,54.4
2018-07-05T14:16:50.288Z,56.7
2018-07-05T14:18:50.609Z,56.5
2018-07-05T14:20:51.005Z,56.2
2018-07-05T14:22:50.729Z,60.8
2018-07-05T14:24:51.347Z,71.3
2018-07-05T14:26:50.189Z,75.7
2018-07-05T14:28:50.411Z,77.2
2018-07-05T14:30:50.805Z,79.3
2018-07-05T14:32:50.510Z,80.9
2018-07-05T14:34:50.470Z,81.5
2018-07-05T14:36:50.984Z,84.5
2018-07-05T14:38:50.470Z,84.5
2018-07-05T14:40:50.207Z,85.9
2018-07-05T14:42:50.170Z,86.2
2018-07-05T14:44:50.620Z,86.2
2018-07-05T14:46:50.780Z,85.7
2018-07-05T14:48:50.881Z,84.8
2018-07-05T14:50:50.745Z,87.0
2018-07-05T14:52:50.945Z,90.5
2018-07-05T14:54:50.584Z,88.2
2018-07-05T14:56:50.689Z,88.3
2018-07-05T14:58:51.197Z,88.1
2018-07-05T15:00:50.369Z,87.0
2018-07-05T15:02:50.934Z,89.3
2018-07-05T15:04:50.848Z,91.4
2018-07-05T15:06:50.411Z,91.7
2018-07-05T15:08:49.978Z,91.8
2018-07-05T15:10:50.940Z,92.5
2018-07-05T15:12:50.391Z,93.8
2018-07-05T15:14:50.545Z,94.3
2018-07-05T15:16:50.162Z,94.3
2018-07-05T15:18:50.594Z,93.5
2018-07-05T15:20:50.594Z,94.2
2018-07-05T15:22:49.984Z,93.7
2018-07-05T15:24:50.424Z,95.9
2018-07-05T15:26:50.976Z,97.3
2018-07-05T15:28:50.331Z,97.3
2018-07-05T15:30:50.203Z,95.5
2018-07-05T15:32:50.607Z,94.8
2018-07-05T15:34:50.609Z,95.6
2018-07-05T15:36:50.866Z,96.0
2018-07-05T15:38:50.687Z,96.1
2018-07-05T15:40:50.043Z,96.1
2018-07-05T15:50:50.719Z,96.1
2018-07-05T15:52:50.911Z,96.5
2018-07-05T15:54:49.988Z,96.0
2018-07-05T15:56:50.236Z,97.2
2018-07-05T15:58:50.748Z,96.0
2018-07-05T16:00:50.907Z,95.7
2018-07-05T16:02:50.652Z,94.4
2018-07-05T16:04:50.915Z,94.4
2018-07-05T16:06:50.647Z,95.2
2018-07-05T16:08:50.812Z,94.7
2018-07-05T16:10:50.559Z,93.8
2018-07-05T16:12:50.425Z,96.1
2018-07-05T16:14:50.639Z,95.8
2018-07-05T16:16:50.245Z,95.2
2018-07-05T16:18:50.514Z,96.7
2018-07-05T16:20:50.006Z,97.1
2018-07-05T16:22:50.840Z,96.8
2018-07-05T16:24:50.207Z,96.9
2018-07-05T16:26:50.825Z,95.0
2018-07-05T16:28:50.075Z,97.0
2018-07-05T16:30:50.663Z,96.6
2018-07-05T16:32:50.448Z,96.6
2018-07-05T16:34:50.865Z,96.6
2018-07-05T16:36:50.736Z,97.0
2018-07-05T16:38:50.686Z,96.8
2018-07-05T16:40:50.191Z,96.1
2018-07-05T16:42:50.197Z,96.6
2018-07-05T16:44:50.935Z,95.9
2018-07-05T16:46:50.482Z,96.4
2018-07-05T16:48:50.253Z,95.6
2018-07-05T16:50:50.851Z,95.5
2018-07-05T16:52:50.509Z,96.1
2018-07-05T16:54:50.837Z,95.0
2018-07-05T16:56:50.300Z,95.0
2018-07-05T16:58:50.860Z,96.0
2018-07-05T17:00:50.639Z,94.8
2018-07-05T17:02:50.648Z,96.5
2018-07-05T17:04:50.147Z,95.9
2018-07-05T17:06:51.639Z,95.9
2018-07-05T17:08:50.496Z,94.6
2018-07-05T17:10:50.395Z,94.6
2018-07-05T17:12:50.918Z,95.3
2018-07-05T17:14:50.948Z,93.2
2018-07-05T17:16:51.095Z,93.5
2018-07-05T17:18:50.457Z,94.1
2018-07-05T17:20:50.061Z,95.3
2018-07-05T17:22:50.572Z,95.4
2018-07-05T17:24:50.360Z,94.7
2018-07-05T17:26:50.573Z,94.7
2018-07-05T17:28:50.046Z,94.5
2018-07-05T17:30:50.971Z,94.9
2018-07-05T17:32:50.126Z,94.3
2018-07-05T17:34:50.148Z,95.3
2018-07-05T17:36:50.260Z,92.6
2018-07-05T17:38:50.655Z,95.1
2018-07-05T17:40:50.539Z,95.5
2018-07-05T17:42:50.642Z,94.5
2018-07-05T17:44:50.657Z,94.2
2018-07-05T17:46:50.458Z,94.2
2018-07-05T17:48:50.364Z,94.1
2018-07-05T17:50:50.096Z,93.5
2018-07-05T17:52:50.267Z,93.8
2018-07-05T17:54:50.284Z,93.4
2018-07-05T17:56:50.228Z,91.8
2018-07-05T17:58:50.848Z,91.7
2018-07-05T18:00:50.328Z,93.0
2018-07-05T18:02:50.834Z,92.4
2018-07-05T18:04:50.134Z,93.3
2018-07-05T18:06:50.199Z,93.3
2018-07-05T18:08:50.358Z,93.2
2018-07-05T18:10:49.980Z,93.9
2018-07-05T18:12:50.297Z,92.5
2018-07-05T18:14:50.855Z,92.8
2018-07-05T18:16:50.822Z,91.1
2018-07-05T18:18:50.171Z,92.2
2018-07-05T18:20:50.681Z,93.1
2018-07-05T18:22:50.165Z,93.6
2018-07-05T18:24:50.516Z,94.6
2018-07-05T18:26:50.934Z,94.3
2018-07-05T18:28:50.822Z,94.1
2018-07-05T18:30:50.366Z,94.9
2018-07-05T18:32:50.790Z,94.9
2018-07-05T18:34:50.460Z,95.2
2018-07-05T18:36:50.639Z,94.7
2018-07-05T18:38:50.600Z,94.7
2018-07-05T18:40:50.918Z,94.0
2018-07-05T18:42:50.562Z,94.6
2018-07-05T18:44:50.047Z,95.4
2018-07-05T18:46:50.338Z,95.4
2018-07-05T18:48:50.356Z,94.7
2018-07-05T18:50:50.477Z,95.6
2018-07-05T18:52:50.030Z,95.0
2018-07-05T18:54:50.691Z,94.3
2018-07-05T18:56:50.566Z,94.3
2018-07-05T18:58:51.218Z,94.3
2018-07-05T19:00:50.058Z,94.4
2018-07-05T19:02:50.865Z,94.7
2018-07-05T19:04:50.632Z,95.1
2018-07-05T19:06:50.334Z,95.3
2018-07-05T19:08:50.623Z,95.3
2018-07-05T19:10:51.469Z,96.2
2018-07-05T19:12:50.430Z,96.5
2018-07-05T19:14:50.387Z,95.7
2018-07-05T19:16:50.805Z,95.9
2018-07-05T19:18:50.245Z,96.2
2018-07-05T19:20:50.049Z,96.4
2018-07-05T19:22:50.242Z,96.1
2018-07-05T19:24:50.050Z,96.1
2018-07-05T19:26:50.859Z,96.7
2018-07-05T19:28:49.975Z,96.0
2018-07-05T19:30:50.593Z,96.3
2018-07-05T19:32:50.318Z,97.0
2018-07-05T19:34:50.868Z,96.8
2018-07-05T19:36:50.695Z,97.0
2018-07-05T19:38:50.453Z,97.1
2018-07-05T19:40:50.323Z,97.3
2018-07-05T19:42:50.642Z,97.3
2018-07-05T19:44:50.443Z,97.7
2018-07-05T19:46:50.376Z,98.8
2018-07-05T19:48:50.157Z,98.4
2018-07-05T19:50:50.938Z,98.0
2018-07-05T19:52:50.152Z,98.8
2018-07-05T19:54:51.830Z,99.5
2018-07-05T19:56:50.187Z,98.8
2018-07-05T19:58:50.838Z,99.2
2018-07-05T20:00:50.613Z,99.6
2018-07-05T20:02:50.007Z,99.3
2018-07-05T20:04:50.775Z,99.2
2018-07-05T20:06:50.552Z,99.8
2018-07-05T20:08:50.474Z,100.0
2018-07-05T20:10:50.116Z,100.0
2018-07-05T20:12:50.925Z,100.0
2018-07-05T20:14:50.354Z,100.0
2018-07-05T20:16:50.767Z,100.0
2018-07-05T20:18:50.988Z,100.0
2018-07-05T20:20:50.788Z,100.0
2018-07-05T20:22:50.787Z,100.0
2018-07-05T20:24:51.023Z,99.6
2018-07-05T20:26:50.582Z,99.6
2018-07-05T20:28:50.034Z,99.4
2018-07-05T20:30:50.431Z,99.7
2018-07-05T20:32:50.412Z,99.3
2018-07-05T20:34:50.704Z,99.4
2018-07-05T20:36:50.639Z,99.7
2018-07-05T20:38:50.685Z,99.7
2018-07-05T20:40:51.164Z,99.7
2018-07-05T20:42:50.012Z,99.6
2018-07-05T20:44:50.362Z,99.0
2018-07-05T20:46:50.613Z,100.0
2018-07-05T20:48:50.534Z,100.0
2018-07-05T20:50:50.520Z,99.8
2018-07-05T20:52:50.813Z,99.8
2018-07-05T20:54:50.878Z,99.4
2018-07-05T20:56:50.305Z,99.5
2018-07-05T20:58:50.275Z,100.0
2018-07-05T21:00:50.056Z,100.0
2018-07-05T21:02:50.327Z,100.0
2018-07-05T21:04:50.744Z,99.7
2018-07-05T21:06:50.815Z,100.0
2018-07-05T21:08:50.827Z,100.0
2018-07-05T21:10:50.639Z,100.0
2018-07-05T21:12:50.829Z,100.0
2018-07-05T21:14:50.225Z,100.0
2018-07-05T21:16:50.238Z,100.0
2018-07-05T21:18:50.430Z,100.0
2018-07-05T21:20:50.188Z,100.0
2018-07-05T21:22:50.526Z,100.0
2018-07-05T21:24:50.941Z,100.0
2018-07-05T21:26:49.956Z,100.0
2018-07-05T21:28:50.964Z,100.0
2018-07-05T21:30:50.906Z,100.0
2018-07-05T21:32:50.201Z,100.0
2018-07-05T21:34:50.953Z,100.0
2018-07-05T21:36:51.019Z,100.0
2018-07-05T21:38:50.597Z,100.0
2018-07-05T21:40:50.639Z,100.0
2018-07-05T21:42:50.873Z,100.0
2018-07-05T21:44:50.513Z,100.0
2018-07-05T21:46:50.700Z,100.0
2018-07-05T21:48:50.504Z,100.0
2018-07-05T21:50:50.436Z,100.0
2018-07-05T21:52:50.239Z,100.0
2018-07-05T21:54:50.056Z,100.0
2018-07-05T21:56:50.618Z,100.0
2018-07-05T21:58:50.419Z,100.0
2018-07-05T22:00:49.988Z,100.0
2018-07-05T22:02:49.961Z,98.9
2018-07-05T22:04:50.945Z,98.8
2018-07-05T22:06:50.299Z,98.6
2018-07-05T22:08:51.459Z,98.9
2018-07-05T22:10:50.884Z,99.1
2018-07-05T22:12:50.584Z,99.1
2018-07-05T22:14:50.654Z,97.9
2018-07-05T22:16:50.192Z,98.5
2018-07-05T22:18:50.695Z,98.5
2018-07-05T22:20:50.008Z,97.5
2018-07-05T22:22:50.613Z,98.3
2018-07-05T22:24:50.887Z,97.4
2018-07-05T22:26:50.152Z,97.0
2018-07-05T22:28:50.443Z,96.7
2018-07-05T22:30:50.665Z,96.3
2018-07-05T22:32:49.747Z,96.3
2018-07-05T22:34:50.170Z,97.5
2018-07-05T22:36:50.703Z,97.3
2018-07-05T22:38:50.196Z,97.5
2018-07-05T22:40:50.285Z,96.8
2018-07-05T22:42:50.526Z,97.5
2018-07-05T22:44:50.738Z,97.2
2018-07-05T22:46:50.743Z,97.5
2018-07-05T22:48:50.029Z,97.8
2018-07-05T22:50:49.977Z,98.4
2018-07-05T22:52:50.028Z,98.1
2018-07-05T22:54:50.481Z,98.6
2018-07-05T22:56:50.590Z,97.3
2018-07-05T22:58:50.742Z,96.9
2018-07-05T23:00:50.499Z,96.8
2018-07-05T23:02:50.613Z,96.9
2018-07-05T23:04:50.350Z,98.2
2018-07-05T23:06:50.449Z,98.7
2018-07-05T23:08:50.534Z,98.0
2018-07-05T23:10:50.096Z,98.6
2018-07-05T23:12:50.376Z,98.6
2018-07-05T23:14:50.946Z,98.4
2018-07-05T23:16:50.151Z,98.5
2018-07-05T23:18:50.189Z,98.0
2018-07-05T23:20:50.757Z,98.0
2018-07-05T23:22:51.154Z,98.8
2018-07-05T23:24:50.556Z,99.8
2018-07-05T23:26:49.978Z,100.0
2018-07-05T23:28:50.943Z,100.0
2018-07-05T23:30:50.326Z,100.0
2018-07-05T23:32:50.547Z,100.0
2018-07-05T23:34:50.208Z,100.0
2018-07-05T23:36:50.785Z,100.0
2018-07-05T23:38:50.651Z,100.0
2018-07-05T23:40:50.822Z,100.0
2018-07-05T23:42:50.226Z,100.0
2018-07-05T23:44:51.185Z,100.0
2018-07-05T23:46:50.643Z,100.0
2018-07-05T23:48:50.435Z,100.0
2018-07-05T23:50:50.346Z,100.0
2018-07-05T23:52:50.971Z,100.0
2018-07-05T23:54:50.480Z,100.0
2018-07-05T23:56:50.471Z,100.0
2018-07-05T23:58:50.089Z,100.0
